createdAt,value
2017-08-15T00:00:31.802Z,1008.03
2017-08-15T00:01:31.794Z,1008.02
2017-08-15T00:02:31.784Z,1008
2017-08-15T00:03:31.775Z,1008.02
2017-08-15T00:04:31.767Z,1008
2017-08-15T00:05:31.756Z,1008.02
2017-08-15T00:06:31.749Z,1007.98
2017-08-15T00:07:31.740Z,1008.04
2017-08-15T00:08:31.736Z,1008.02
2017-08-15T00:09:31.722Z,1008.01
2017-08-15T00:10:31.713Z,1007.96
2017-08-15T00:11:31.703Z,1007.98
2017-08-15T00:12:31.693Z,1007.98
2017-08-15T00:13:31.687Z,1007.99
2017-08-15T00:14:31.678Z,1007.99
2017-08-15T00:15:31.868Z,1007.98
2017-08-15T00:16:31.658Z,1008
2017-08-15T00:17:31.649Z,1007.96
2017-08-15T00:18:31.642Z,1008.03
2017-08-15T00:19:31.632Z,1007.99
2017-08-15T00:20:31.674Z,1007.96
2017-08-15T00:21:31.613Z,1008.01
2017-08-15T00:22:31.607Z,1007.98
2017-08-15T00:23:31.595Z,1007.95
2017-08-15T00:24:31.587Z,1007.94
2017-08-15T00:25:31.578Z,1007.96
2017-08-15T00:26:31.569Z,1007.88
2017-08-15T00:27:31.559Z,1007.85
2017-08-15T00:28:31.550Z,1007.86
2017-08-15T00:29:31.542Z,1007.86
2017-08-15T00:30:31.535Z,1007.82
2017-08-15T00:31:31.523Z,1007.83
2017-08-15T00:32:31.514Z,1007.83
2017-08-15T00:33:31.505Z,1007.81
2017-08-15T00:34:31.494Z,1007.83
2017-08-15T00:35:31.489Z,1007.85
2017-08-15T00:36:31.476Z,1007.82
2017-08-15T00:37:31.467Z,1007.85
2017-08-15T00:38:31.461Z,1007.82
2017-08-15T00:39:31.449Z,1007.81
2017-08-15T00:40:31.441Z,1007.8
2017-08-15T00:41:31.430Z,1007.79
2017-08-15T00:42:31.420Z,1007.78
2017-08-15T00:43:31.414Z,1007.78
2017-08-15T00:44:31.404Z,1007.82
2017-08-15T00:45:31.394Z,1007.83
2017-08-15T00:46:31.383Z,1007.81
2017-08-15T00:47:31.375Z,1007.79
2017-08-15T00:48:31.366Z,1007.82
2017-08-15T00:49:31.355Z,1007.76
2017-08-15T00:50:31.347Z,1007.79
2017-08-15T00:51:31.337Z,1007.78
2017-08-15T00:52:31.328Z,1007.72
2017-08-15T00:53:31.319Z,1007.76
2017-08-15T00:54:31.309Z,1007.74
2017-08-15T00:55:31.299Z,1007.73
2017-08-15T00:56:31.290Z,1007.73
2017-08-15T00:57:31.284Z,1007.73
2017-08-15T00:58:31.271Z,1007.7
2017-08-15T00:59:31.262Z,1007.7
2017-08-15T01:00:31.256Z,1007.7
2017-08-15T01:01:31.242Z,1007.69
2017-08-15T01:02:31.232Z,1007.69
2017-08-15T01:03:31.225Z,1007.66
2017-08-15T01:04:31.213Z,1007.67
2017-08-15T01:05:31.210Z,1007.67
2017-08-15T01:06:31.196Z,1007.69
2017-08-15T01:07:31.184Z,1007.67
2017-08-15T01:08:31.175Z,1007.67
2017-08-15T01:09:31.165Z,1007.68
2017-08-15T01:10:31.157Z,1007.64
2017-08-15T01:11:31.148Z,1007.68
2017-08-15T01:12:31.139Z,1007.69
2017-08-15T01:13:31.128Z,1007.66
2017-08-15T01:14:31.120Z,1007.67
2017-08-15T01:15:31.109Z,1007.64
2017-08-15T01:16:31.149Z,1007.65
2017-08-15T01:17:31.088Z,1007.59
2017-08-15T01:18:31.088Z,1007.63
2017-08-15T01:19:31.098Z,1007.61
2017-08-15T01:20:31.061Z,1007.62
2017-08-15T01:21:31.051Z,1007.63
2017-08-15T01:22:31.043Z,1007.65
2017-08-15T01:23:31.034Z,1007.64
2017-08-15T01:24:31.020Z,1007.65
2017-08-15T01:25:31.013Z,1007.64
2017-08-15T01:26:31.004Z,1007.67
2017-08-15T01:27:30.996Z,1007.69
2017-08-15T01:28:30.982Z,1007.68
2017-08-15T01:29:30.973Z,1007.7
2017-08-15T01:30:30.964Z,1007.63
2017-08-15T01:31:30.953Z,1007.67
2017-08-15T01:32:30.945Z,1007.64
2017-08-15T01:33:30.933Z,1007.63
2017-08-15T01:34:30.926Z,1007.67
2017-08-15T01:35:30.916Z,1007.61
2017-08-15T01:36:30.903Z,1007.61
2017-08-15T01:37:30.895Z,1007.6
2017-08-15T01:38:30.885Z,1007.57
2017-08-15T01:39:30.876Z,1007.59
2017-08-15T01:40:30.867Z,1007.57
2017-08-15T01:41:30.855Z,1007.54
2017-08-15T01:42:30.846Z,1007.57
2017-08-15T01:43:30.837Z,1007.57
2017-08-15T01:44:30.826Z,1007.56
2017-08-15T01:45:30.817Z,1007.57
2017-08-15T01:46:30.809Z,1007.59
2017-08-15T01:47:30.803Z,1007.57
2017-08-15T01:48:30.787Z,1007.6
2017-08-15T01:49:30.779Z,1007.57
2017-08-15T01:50:30.770Z,1007.51
2017-08-15T01:51:30.758Z,1007.51
2017-08-15T01:52:30.748Z,1007.49
2017-08-15T01:53:30.739Z,1007.46
2017-08-15T01:54:30.732Z,1007.47
2017-08-15T01:55:30.718Z,1007.43
2017-08-15T01:56:30.709Z,1007.42
2017-08-15T01:57:30.700Z,1007.4
2017-08-15T01:58:30.691Z,1007.42
2017-08-15T01:59:30.678Z,1007.36
2017-08-15T02:00:30.670Z,1007.39
2017-08-15T02:01:30.656Z,1007.37
2017-08-15T02:02:30.651Z,1007.36
2017-08-15T02:03:30.638Z,1007.37
2017-08-15T02:04:30.630Z,1007.4
2017-08-15T02:05:30.619Z,1007.36
2017-08-15T02:06:30.611Z,1007.4
2017-08-15T02:07:30.600Z,1007.37
2017-08-15T02:08:30.589Z,1007.37
2017-08-15T02:09:30.578Z,1007.4
2017-08-15T02:10:30.572Z,1007.42
2017-08-15T02:11:30.560Z,1007.4
2017-08-15T02:12:30.799Z,1007.42
2017-08-15T02:13:30.540Z,1007.42
2017-08-15T02:14:30.529Z,1007.43
2017-08-15T02:15:30.521Z,1007.42
2017-08-15T02:16:30.509Z,1007.46
2017-08-15T02:17:30.500Z,1007.4
2017-08-15T02:18:30.491Z,1007.4
2017-08-15T02:19:30.481Z,1007.4
2017-08-15T02:20:30.469Z,1007.37
2017-08-15T02:21:30.460Z,1007.36
2017-08-15T02:22:30.461Z,1007.38
2017-08-15T02:23:30.439Z,1007.38
2017-08-15T02:24:30.430Z,1007.38
2017-08-15T02:25:30.420Z,1007.37
2017-08-15T02:26:30.410Z,1007.39
2017-08-15T02:27:30.651Z,1007.4
2017-08-15T02:28:30.391Z,1007.37
2017-08-15T02:29:30.381Z,1007.35
2017-08-15T02:30:30.368Z,1007.38
2017-08-15T02:31:30.360Z,1007.33
2017-08-15T02:32:30.349Z,1007.32
2017-08-15T02:33:30.338Z,1007.3
2017-08-15T02:34:30.330Z,1007.29
2017-08-15T02:35:30.318Z,1007.29
2017-08-15T02:36:30.311Z,1007.28
2017-08-15T02:37:30.348Z,1007.25
2017-08-15T02:38:30.289Z,1007.25
2017-08-15T02:39:30.280Z,1007.26
2017-08-15T02:40:30.270Z,1007.27
2017-08-15T02:41:30.258Z,1007.22
2017-08-15T02:42:30.498Z,1007.25
2017-08-15T02:43:30.238Z,1007.27
2017-08-15T02:44:30.228Z,1007.23
2017-08-15T02:45:30.220Z,1007.27
2017-08-15T02:46:30.209Z,1007.26
2017-08-15T02:47:30.198Z,1007.26
2017-08-15T02:48:30.186Z,1007.27
2017-08-15T02:49:30.179Z,1007.3
2017-08-15T02:50:30.167Z,1007.33
2017-08-15T02:51:30.158Z,1007.35
2017-08-15T02:52:30.345Z,1007.35
2017-08-15T02:53:30.138Z,1007.37
2017-08-15T02:54:30.125Z,1007.38
2017-08-15T02:55:30.116Z,1007.31
2017-08-15T02:56:30.105Z,1007.28
2017-08-15T02:57:30.095Z,1007.26
2017-08-15T02:58:30.085Z,1007.32
2017-08-15T02:59:30.075Z,1007.34
2017-08-15T03:00:30.064Z,1007.34
2017-08-15T03:01:30.055Z,1007.33
2017-08-15T03:02:30.043Z,1007.32
2017-08-15T03:03:30.035Z,1007.33
2017-08-15T03:04:30.025Z,1007.35
2017-08-15T03:05:30.014Z,1007.35
2017-08-15T03:06:30.003Z,1007.36
2017-08-15T03:07:29.993Z,1007.37
2017-08-15T03:08:29.983Z,1007.34
2017-08-15T03:09:29.974Z,1007.31
2017-08-15T03:10:29.962Z,1007.3
2017-08-15T03:11:29.953Z,1007.31
2017-08-15T03:12:29.941Z,1007.27
2017-08-15T03:13:29.932Z,1007.28
2017-08-15T03:14:29.922Z,1007.28
2017-08-15T03:15:29.911Z,1007.28
2017-08-15T03:16:29.902Z,1007.28
2017-08-15T03:17:29.890Z,1007.27
2017-08-15T03:18:29.880Z,1007.26
2017-08-15T03:19:29.876Z,1007.25
2017-08-15T03:20:29.860Z,1007.27
2017-08-15T03:21:29.850Z,1007.24
2017-08-15T03:22:29.840Z,1007.22
2017-08-15T03:23:29.827Z,1007.24
2017-08-15T03:24:29.817Z,1007.25
2017-08-15T03:25:29.806Z,1007.18
2017-08-15T03:26:29.799Z,1007.21
2017-08-15T03:27:29.788Z,1007.2
2017-08-15T03:28:29.776Z,1007.2
2017-08-15T03:29:29.765Z,1007.19
2017-08-15T03:30:29.756Z,1007.22
2017-08-15T03:31:29.745Z,1007.17
2017-08-15T03:32:29.738Z,1007.21
2017-08-15T03:33:29.724Z,1007.2
2017-08-15T03:34:29.714Z,1007.22
2017-08-15T03:35:29.704Z,1007.21
2017-08-15T03:36:29.694Z,1007.23
2017-08-15T03:37:29.682Z,1007.22
2017-08-15T03:38:29.674Z,1007.25
2017-08-15T03:39:29.662Z,1007.22
2017-08-15T03:40:29.653Z,1007.24
2017-08-15T03:41:29.642Z,1007.25
2017-08-15T03:42:29.634Z,1007.24
2017-08-15T03:43:29.822Z,1007.28
2017-08-15T03:44:29.617Z,1007.23
2017-08-15T03:45:29.600Z,1007.25
2017-08-15T03:46:29.591Z,1007.26
2017-08-15T03:47:29.593Z,1007.25
2017-08-15T03:48:29.569Z,1007.26
2017-08-15T03:49:29.560Z,1007.26
2017-08-15T03:50:29.552Z,1007.22
2017-08-15T03:51:29.537Z,1007.27
2017-08-15T03:52:29.527Z,1007.26
2017-08-15T03:53:29.519Z,1007.29
2017-08-15T03:54:29.509Z,1007.26
2017-08-15T03:55:29.497Z,1007.28
2017-08-15T03:56:29.487Z,1007.28
2017-08-15T03:57:29.476Z,1007.25
2017-08-15T03:58:29.465Z,1007.26
2017-08-15T03:59:29.455Z,1007.24
2017-08-15T04:00:29.446Z,1007.22
2017-08-15T04:01:29.435Z,1007.21
2017-08-15T04:02:29.424Z,1007.21
2017-08-15T04:03:29.414Z,1007.17
2017-08-15T04:04:29.404Z,1007.17
2017-08-15T04:05:29.392Z,1007.16
2017-08-15T04:06:29.382Z,1007.15
2017-08-15T04:07:29.373Z,1007.14
2017-08-15T04:08:29.361Z,1007.16
2017-08-15T04:09:29.351Z,1007.09
2017-08-15T04:10:29.341Z,1007.12
2017-08-15T04:11:29.330Z,1007.09
2017-08-15T04:12:29.319Z,1007.1
2017-08-15T04:13:29.309Z,1007.12
2017-08-15T04:14:29.301Z,1007.11
2017-08-15T04:15:29.290Z,1007.1
2017-08-15T04:16:29.279Z,1007.06
2017-08-15T04:17:29.265Z,1007.03
2017-08-15T04:18:29.260Z,1007.05
2017-08-15T04:19:29.245Z,1007.05
2017-08-15T04:20:29.235Z,1007.05
2017-08-15T04:21:29.225Z,1007.07
2017-08-15T04:22:29.214Z,1007.01
2017-08-15T04:23:29.204Z,1006.97
2017-08-15T04:24:29.194Z,1006.95
2017-08-15T04:25:29.187Z,1006.94
2017-08-15T04:26:29.173Z,1006.94
2017-08-15T04:27:29.162Z,1006.91
2017-08-15T04:28:29.155Z,1006.91
2017-08-15T04:29:29.141Z,1006.9
2017-08-15T04:30:29.130Z,1006.93
2017-08-15T04:31:29.129Z,1006.92
2017-08-15T04:32:29.108Z,1006.89
2017-08-15T04:33:29.097Z,1006.86
2017-08-15T04:34:29.086Z,1006.86
2017-08-15T04:35:29.078Z,1006.86
2017-08-15T04:36:29.067Z,1006.88
2017-08-15T04:37:29.055Z,1006.84
2017-08-15T04:38:29.044Z,1006.84
2017-08-15T04:39:29.039Z,1006.88
2017-08-15T04:40:29.025Z,1006.88
2017-08-15T04:41:29.012Z,1006.83
2017-08-15T04:42:29.002Z,1006.84
2017-08-15T04:43:28.992Z,1006.84
2017-08-15T04:44:28.982Z,1006.85
2017-08-15T04:45:28.970Z,1006.86
2017-08-15T04:46:28.961Z,1006.84
2017-08-15T04:47:28.950Z,1006.86
2017-08-15T04:48:28.939Z,1006.82
2017-08-15T04:49:28.931Z,1006.88
2017-08-15T04:50:28.919Z,1006.84
2017-08-15T04:51:28.908Z,1006.84
2017-08-15T04:52:28.896Z,1006.83
2017-08-15T04:53:28.886Z,1006.82
2017-08-15T04:54:28.876Z,1006.82
2017-08-15T04:55:28.865Z,1006.82
2017-08-15T04:56:28.859Z,1006.84
2017-08-15T04:57:28.845Z,1006.8
2017-08-15T04:58:28.837Z,1006.81
2017-08-15T04:59:28.824Z,1006.8
2017-08-15T05:00:28.812Z,1006.79
2017-08-15T05:01:28.805Z,1006.8
2017-08-15T05:02:28.792Z,1006.8
2017-08-15T05:03:28.784Z,1006.81
2017-08-15T05:04:28.771Z,1006.8
2017-08-15T05:05:28.762Z,1006.81
2017-08-15T05:06:28.752Z,1006.81
2017-08-15T05:07:28.742Z,1006.84
2017-08-15T05:08:28.729Z,1006.85
2017-08-15T05:09:28.717Z,1006.87
2017-08-15T05:10:28.708Z,1006.87
2017-08-15T05:11:28.698Z,1006.88
2017-08-15T05:12:28.693Z,1006.81
2017-08-15T05:13:28.677Z,1006.82
2017-08-15T05:14:28.664Z,1006.81
2017-08-15T05:15:28.654Z,1006.79
2017-08-15T05:16:28.645Z,1006.79
2017-08-15T05:17:28.636Z,1006.79
2017-08-15T05:18:28.623Z,1006.81
2017-08-15T05:19:28.613Z,1006.82
2017-08-15T05:20:28.602Z,1006.83
2017-08-15T05:21:28.593Z,1006.85
2017-08-15T05:22:28.582Z,1006.85
2017-08-15T05:23:28.572Z,1006.83
2017-08-15T05:24:28.561Z,1006.84
2017-08-15T05:25:28.551Z,1006.85
2017-08-15T05:26:28.540Z,1006.84
2017-08-15T05:27:28.533Z,1006.84
2017-08-15T05:28:28.523Z,1006.8
2017-08-15T05:29:28.510Z,1006.8
2017-08-15T05:30:28.501Z,1006.87
2017-08-15T05:31:28.489Z,1006.84
2017-08-15T05:32:28.479Z,1006.87
2017-08-15T05:33:28.472Z,1006.89
2017-08-15T05:34:28.460Z,1006.86
2017-08-15T05:35:28.449Z,1006.86
2017-08-15T05:36:28.439Z,1006.86
2017-08-15T05:37:28.432Z,1006.87
2017-08-15T05:38:28.418Z,1006.85
2017-08-15T05:39:28.457Z,1006.87
2017-08-15T05:40:28.396Z,1006.86
2017-08-15T05:41:28.387Z,1006.89
2017-08-15T05:42:28.377Z,1006.88
2017-08-15T05:43:28.567Z,1006.88
2017-08-15T05:44:28.361Z,1006.84
2017-08-15T05:45:28.346Z,1006.9
2017-08-15T05:46:28.337Z,1006.88
2017-08-15T05:47:28.327Z,1006.86
2017-08-15T05:48:28.316Z,1006.82
2017-08-15T05:49:28.330Z,1006.83
2017-08-15T05:50:28.295Z,1006.84
2017-08-15T05:51:28.286Z,1006.86
2017-08-15T05:52:28.274Z,1006.83
2017-08-15T05:53:28.265Z,1006.85
2017-08-15T05:54:28.257Z,1006.92
2017-08-15T05:55:28.245Z,1006.93
2017-08-15T05:56:28.237Z,1006.91
2017-08-15T05:57:28.226Z,1006.87
2017-08-15T05:58:28.221Z,1006.85
2017-08-15T05:59:28.206Z,1006.87
2017-08-15T06:00:28.199Z,1006.88
2017-08-15T06:01:28.186Z,1006.83
2017-08-15T06:02:28.176Z,1006.83
2017-08-15T06:03:28.167Z,1006.86
2017-08-15T06:04:28.159Z,1006.91
2017-08-15T06:05:28.149Z,1006.87
2017-08-15T06:06:28.138Z,1006.89
2017-08-15T06:07:28.126Z,1006.83
2017-08-15T06:08:28.119Z,1006.85
2017-08-15T06:09:28.108Z,1006.83
2017-08-15T06:10:28.098Z,1006.8
2017-08-15T06:11:28.095Z,1006.86
2017-08-15T06:12:28.082Z,1006.84
2017-08-15T06:13:28.072Z,1006.85
2017-08-15T06:14:28.067Z,1006.84
2017-08-15T06:15:28.049Z,1006.86
2017-08-15T06:16:28.040Z,1006.88
2017-08-15T06:17:28.029Z,1006.9
2017-08-15T06:18:28.031Z,1006.86
2017-08-15T06:19:28.011Z,1006.83
2017-08-15T06:20:28.002Z,1006.79
2017-08-15T06:21:27.996Z,1006.75
2017-08-15T06:22:27.986Z,1006.7
2017-08-15T06:23:27.975Z,1006.68
2017-08-15T06:24:27.966Z,1006.65
2017-08-15T06:25:27.958Z,1006.62
2017-08-15T06:26:27.950Z,1006.62
2017-08-15T06:27:27.938Z,1006.6
2017-08-15T06:28:27.927Z,1006.58
2017-08-15T06:29:27.919Z,1006.57
2017-08-15T06:30:27.911Z,1006.53
2017-08-15T06:31:27.902Z,1006.43
2017-08-15T06:32:27.893Z,1006.43
2017-08-15T06:33:27.884Z,1006.35
2017-08-15T06:34:27.876Z,1006.34
2017-08-15T06:35:27.866Z,1006.36
2017-08-15T06:36:27.860Z,1006.36
2017-08-15T06:37:27.849Z,1006.38
2017-08-15T06:38:27.839Z,1006.41
2017-08-15T06:39:27.844Z,1006.45
2017-08-15T06:40:27.823Z,1006.47
2017-08-15T06:41:27.817Z,1006.54
2017-08-15T06:42:27.808Z,1006.57
2017-08-15T06:43:27.796Z,1006.61
2017-08-15T06:44:27.789Z,1006.68
2017-08-15T06:45:27.780Z,1006.66
2017-08-15T06:46:27.770Z,1006.69
2017-08-15T06:47:27.762Z,1006.68
2017-08-15T06:48:27.755Z,1006.66
2017-08-15T06:49:27.743Z,1006.64
2017-08-15T06:50:27.736Z,1006.74
2017-08-15T06:51:27.725Z,1006.75
2017-08-15T06:52:27.716Z,1006.76
2017-08-15T06:53:27.708Z,1006.81
2017-08-15T06:54:27.700Z,1006.82
2017-08-15T06:55:27.694Z,1006.85
2017-08-15T06:56:27.686Z,1006.89
2017-08-15T06:57:27.674Z,1006.92
2017-08-15T06:58:27.668Z,1006.96
2017-08-15T06:59:27.658Z,1006.97
2017-08-15T07:00:27.649Z,1006.99
2017-08-15T07:01:27.640Z,1006.97
2017-08-15T07:02:27.632Z,1006.96
2017-08-15T07:03:27.622Z,1006.97
2017-08-15T07:04:27.618Z,1006.92
2017-08-15T07:05:27.605Z,1006.93
2017-08-15T07:06:27.598Z,1006.88
2017-08-15T07:07:27.590Z,1006.89
2017-08-15T07:08:27.583Z,1006.84
2017-08-15T07:09:27.576Z,1006.84
2017-08-15T07:10:27.567Z,1006.86
2017-08-15T07:11:27.555Z,1006.89
2017-08-15T07:12:27.551Z,1006.94
2017-08-15T07:13:27.541Z,1006.96
2017-08-15T07:14:27.532Z,1006.97
2017-08-15T07:15:27.525Z,1007
2017-08-15T07:16:27.519Z,1006.96
2017-08-15T07:17:27.510Z,1006.94
2017-08-15T07:18:27.502Z,1006.86
2017-08-15T07:19:27.493Z,1006.85
2017-08-15T07:20:27.485Z,1006.87
2017-08-15T07:21:27.529Z,1006.86
2017-08-15T07:22:27.470Z,1006.89
2017-08-15T07:23:27.465Z,1006.89
2017-08-15T07:24:27.455Z,1006.84
2017-08-15T07:25:27.447Z,1006.82
2017-08-15T07:26:27.441Z,1006.76
2017-08-15T07:27:27.432Z,1006.73
2017-08-15T07:28:27.428Z,1006.7
2017-08-15T07:29:27.423Z,1006.7
2017-08-15T07:30:27.413Z,1006.7
2017-08-15T07:31:27.408Z,1006.7
2017-08-15T07:32:27.398Z,1006.71
2017-08-15T07:33:27.390Z,1006.67
2017-08-15T07:34:27.383Z,1006.7
2017-08-15T07:35:27.376Z,1006.66
2017-08-15T07:36:27.371Z,1006.65
2017-08-15T07:37:27.362Z,1006.65
2017-08-15T07:38:27.355Z,1006.66
2017-08-15T07:39:27.348Z,1006.71
2017-08-15T07:40:27.344Z,1006.65
2017-08-15T07:41:27.384Z,1006.69
2017-08-15T07:42:27.328Z,1006.63
2017-08-15T07:43:27.527Z,1006.6
2017-08-15T07:44:27.314Z,1006.63
2017-08-15T07:45:27.307Z,1006.65
2017-08-15T07:46:27.304Z,1006.7
2017-08-15T07:47:27.297Z,1006.7
2017-08-15T07:48:27.287Z,1006.7
2017-08-15T07:49:27.282Z,1006.69
2017-08-15T07:50:27.276Z,1006.64
2017-08-15T07:51:27.318Z,1006.62
2017-08-15T07:52:27.263Z,1006.64
2017-08-15T07:53:27.261Z,1006.63
2017-08-15T07:54:27.252Z,1006.61
2017-08-15T07:55:27.245Z,1006.59
2017-08-15T07:56:27.239Z,1006.6
2017-08-15T07:57:27.234Z,1006.58
2017-08-15T07:58:27.227Z,1006.59
2017-08-15T07:59:27.221Z,1006.56
2017-08-15T08:00:27.222Z,1006.59
2017-08-15T08:01:27.208Z,1006.6
2017-08-15T08:02:27.201Z,1006.58
2017-08-15T08:03:27.198Z,1006.56
2017-08-15T08:04:27.192Z,1006.53
2017-08-15T08:05:27.186Z,1006.57
2017-08-15T08:06:27.179Z,1006.58
2017-08-15T08:07:27.177Z,1006.54
2017-08-15T08:08:27.172Z,1006.54
2017-08-15T08:09:27.163Z,1006.53
2017-08-15T08:10:27.155Z,1006.6
2017-08-15T08:11:27.152Z,1006.61
2017-08-15T08:12:27.144Z,1006.71
2017-08-15T08:13:27.138Z,1006.73
2017-08-15T08:14:27.134Z,1006.84
2017-08-15T08:15:27.128Z,1006.96
2017-08-15T08:16:27.123Z,1007.04
2017-08-15T08:17:27.126Z,1007.18
2017-08-15T08:18:27.112Z,1007.22
2017-08-15T08:19:27.106Z,1007.24
2017-08-15T08:20:27.103Z,1007.2
2017-08-15T08:21:27.096Z,1007.24
2017-08-15T08:22:27.090Z,1007.3
2017-08-15T08:23:27.087Z,1007.4
2017-08-15T08:24:27.081Z,1007.37
2017-08-15T08:25:27.076Z,1007.38
2017-08-15T08:26:27.072Z,1007.43
2017-08-15T08:27:27.070Z,1007.45
2017-08-15T08:28:27.062Z,1007.48
2017-08-15T08:29:27.058Z,1007.49
2017-08-15T08:30:27.053Z,1007.5
2017-08-15T08:31:27.049Z,1007.49
2017-08-15T08:32:27.093Z,1007.46
2017-08-15T08:33:27.043Z,1007.42
2017-08-15T08:34:27.035Z,1007.39
2017-08-15T08:35:27.030Z,1007.4
2017-08-15T08:36:27.026Z,1007.39
2017-08-15T08:37:27.025Z,1007.43
2017-08-15T08:38:27.017Z,1007.37
2017-08-15T08:39:27.019Z,1007.38
2017-08-15T08:40:27.007Z,1007.4
2017-08-15T08:41:27.003Z,1007.4
2017-08-15T08:42:27.000Z,1007.38
2017-08-15T08:43:26.995Z,1007.39
2017-08-15T08:44:26.990Z,1007.39
2017-08-15T08:45:26.986Z,1007.43
2017-08-15T08:46:26.981Z,1007.43
2017-08-15T08:47:26.975Z,1007.45
2017-08-15T08:48:26.973Z,1007.46
2017-08-15T08:49:26.967Z,1007.53
2017-08-15T08:50:26.964Z,1007.55
2017-08-15T08:51:26.958Z,1007.58
2017-08-15T08:52:26.951Z,1007.64
2017-08-15T08:53:26.947Z,1007.65
2017-08-15T08:54:26.944Z,1007.66
2017-08-15T08:55:26.937Z,1007.65
2017-08-15T08:56:26.933Z,1007.72
2017-08-15T08:57:26.928Z,1007.73
2017-08-15T08:58:26.925Z,1007.72
2017-08-15T08:59:26.920Z,1007.76
2017-08-15T09:00:26.913Z,1007.77
2017-08-15T09:01:26.906Z,1007.84
2017-08-15T09:02:26.902Z,1007.85
2017-08-15T09:03:26.897Z,1007.8
2017-08-15T09:04:26.891Z,1007.84
2017-08-15T09:05:26.886Z,1007.86
2017-08-15T09:06:26.885Z,1007.84
2017-08-15T09:07:26.875Z,1007.83
2017-08-15T09:08:26.870Z,1007.81
2017-08-15T09:09:26.870Z,1007.81
2017-08-15T09:10:26.860Z,1007.82
2017-08-15T09:11:26.858Z,1007.78
2017-08-15T09:12:26.850Z,1007.86
2017-08-15T09:13:26.845Z,1007.86
2017-08-15T09:14:26.839Z,1007.83
2017-08-15T09:15:26.834Z,1007.85
2017-08-15T09:16:26.829Z,1007.86
2017-08-15T09:17:26.824Z,1007.9
2017-08-15T09:18:26.821Z,1007.91
2017-08-15T09:19:26.814Z,1007.92
2017-08-15T09:20:26.809Z,1007.93
2017-08-15T09:21:26.805Z,1007.88
2017-08-15T09:22:26.802Z,1007.9
2017-08-15T09:23:26.801Z,1007.92
2017-08-15T09:24:26.790Z,1007.92
2017-08-15T09:25:26.786Z,1007.98
2017-08-15T09:26:26.780Z,1007.98
2017-08-15T09:27:26.775Z,1007.92
2017-08-15T09:28:26.771Z,1007.93
2017-08-15T09:29:26.766Z,1007.97
2017-08-15T09:30:26.761Z,1007.98
2017-08-15T09:31:26.756Z,1008.03
2017-08-15T09:32:26.750Z,1008
2017-08-15T09:33:26.745Z,1008.05
2017-08-15T09:34:26.740Z,1008.02
2017-08-15T09:35:26.735Z,1008
2017-08-15T09:36:26.733Z,1008
2017-08-15T09:37:26.727Z,1007.93
2017-08-15T09:38:26.729Z,1007.91
2017-08-15T09:39:26.719Z,1007.91
2017-08-15T09:40:26.711Z,1007.89
2017-08-15T09:41:26.711Z,1007.85
2017-08-15T09:42:26.705Z,1007.83
2017-08-15T09:43:26.901Z,1007.8
2017-08-15T09:44:26.694Z,1007.85
2017-08-15T09:45:26.690Z,1007.81
2017-08-15T09:46:26.684Z,1007.79
2017-08-15T09:47:26.682Z,1007.79
2017-08-15T09:48:26.673Z,1007.75
2017-08-15T09:49:26.669Z,1007.73
2017-08-15T09:50:26.666Z,1007.7
2017-08-15T09:51:26.662Z,1007.67
2017-08-15T09:52:26.657Z,1007.66
2017-08-15T09:53:26.650Z,1007.62
2017-08-15T09:54:26.646Z,1007.6
2017-08-15T09:55:26.642Z,1007.6
2017-08-15T09:56:26.635Z,1007.58
2017-08-15T09:57:26.631Z,1007.6
2017-08-15T09:58:26.629Z,1007.57
2017-08-15T09:59:26.624Z,1007.61
2017-08-15T10:00:26.617Z,1007.58
2017-08-15T10:01:26.615Z,1007.62
2017-08-15T10:02:26.608Z,1007.57
2017-08-15T10:03:26.603Z,1007.6
2017-08-15T10:04:26.601Z,1007.59
2017-08-15T10:05:26.599Z,1007.58
2017-08-15T10:06:26.590Z,1007.58
2017-08-15T10:07:26.584Z,1007.58
2017-08-15T10:08:26.578Z,1007.62
2017-08-15T10:09:26.575Z,1007.64
2017-08-15T10:10:26.567Z,1007.61
2017-08-15T10:11:26.564Z,1007.63
2017-08-15T10:12:26.562Z,1007.68
2017-08-15T10:13:26.553Z,1007.72
2017-08-15T10:14:26.551Z,1007.73
2017-08-15T10:15:26.543Z,1007.75
2017-08-15T10:16:26.539Z,1007.79
2017-08-15T10:17:26.537Z,1007.75
2017-08-15T10:18:26.534Z,1007.74
2017-08-15T10:19:26.535Z,1007.75
2017-08-15T10:20:26.537Z,1007.73
2017-08-15T10:21:26.516Z,1007.74
2017-08-15T10:22:26.513Z,1007.69
2017-08-15T10:23:26.505Z,1007.7
2017-08-15T10:24:26.501Z,1007.68
2017-08-15T10:25:26.498Z,1007.68
2017-08-15T10:26:26.496Z,1007.67
2017-08-15T10:27:26.486Z,1007.69
2017-08-15T10:28:26.479Z,1007.67
2017-08-15T10:29:26.482Z,1007.63
2017-08-15T10:30:26.477Z,1007.65
2017-08-15T10:31:26.466Z,1007.63
2017-08-15T10:32:26.460Z,1007.59
2017-08-15T10:33:26.455Z,1007.58
2017-08-15T10:34:26.453Z,1007.64
2017-08-15T10:35:26.448Z,1007.62
2017-08-15T10:36:26.438Z,1007.63
2017-08-15T10:37:26.433Z,1007.6
2017-08-15T10:38:26.428Z,1007.61
2017-08-15T10:39:26.420Z,1007.62
2017-08-15T10:40:26.417Z,1007.63
2017-08-15T10:41:26.410Z,1007.61
2017-08-15T10:42:26.408Z,1007.62
2017-08-15T10:43:26.400Z,1007.57
2017-08-15T10:44:26.393Z,1007.58
2017-08-15T10:45:26.391Z,1007.53
2017-08-15T10:46:26.384Z,1007.44
2017-08-15T10:47:26.378Z,1007.39
2017-08-15T10:48:26.370Z,1007.35
2017-08-15T10:49:26.365Z,1007.33
2017-08-15T10:50:26.359Z,1007.31
2017-08-15T10:51:26.353Z,1007.29
2017-08-15T10:52:26.346Z,1007.24
2017-08-15T10:53:26.341Z,1007.18
2017-08-15T10:54:26.337Z,1007.11
2017-08-15T10:55:26.331Z,1007.05
2017-08-15T10:56:26.325Z,1007
2017-08-15T10:57:26.320Z,1006.95
2017-08-15T10:58:26.314Z,1006.98
2017-08-15T10:59:26.308Z,1007.05
2017-08-15T11:00:26.302Z,1007.04
2017-08-15T11:01:26.296Z,1007.01
2017-08-15T11:02:26.291Z,1006.99
2017-08-15T11:03:26.285Z,1006.97
2017-08-15T11:04:26.278Z,1006.96
2017-08-15T11:05:26.277Z,1006.93
2017-08-15T11:06:26.270Z,1006.85
2017-08-15T11:07:26.269Z,1006.79
2017-08-15T11:08:26.255Z,1006.78
2017-08-15T11:09:26.250Z,1006.74
2017-08-15T11:10:26.243Z,1006.73
2017-08-15T11:11:26.239Z,1006.65
2017-08-15T11:12:26.236Z,1006.62
2017-08-15T11:13:26.278Z,1006.57
2017-08-15T11:14:26.222Z,1006.52
2017-08-15T11:15:26.218Z,1006.44
2017-08-15T11:16:26.210Z,1006.41
2017-08-15T11:17:26.205Z,1006.4
2017-08-15T11:18:26.200Z,1006.32
2017-08-15T11:19:26.197Z,1006.26
2017-08-15T11:20:26.190Z,1006.17
2017-08-15T11:21:26.185Z,1006.1
2017-08-15T11:22:26.181Z,1006.05
2017-08-15T11:23:26.172Z,1006
2017-08-15T11:24:26.168Z,1006.01
2017-08-15T11:25:26.173Z,1006.05
2017-08-15T11:26:26.158Z,1006
2017-08-15T11:27:26.152Z,1006.01
2017-08-15T11:28:26.148Z,1005.98
2017-08-15T11:29:26.142Z,1005.99
2017-08-15T11:30:26.137Z,1005.96
2017-08-15T11:31:26.131Z,1005.92
2017-08-15T11:32:26.134Z,1005.92
2017-08-15T11:33:26.120Z,1005.92
2017-08-15T11:34:26.127Z,1005.93
2017-08-15T11:35:26.115Z,1005.92
2017-08-15T11:36:26.105Z,1005.93
2017-08-15T11:37:26.104Z,1005.88
2017-08-15T11:38:26.096Z,1005.88
2017-08-15T11:39:26.090Z,1005.92
2017-08-15T11:40:26.088Z,1005.94
2017-08-15T11:41:26.084Z,1005.99
2017-08-15T11:42:26.074Z,1006.06
2017-08-15T11:43:26.272Z,1006.05
2017-08-15T11:44:26.064Z,1006.04
2017-08-15T11:45:26.059Z,1005.99
2017-08-15T11:46:26.056Z,1005.95
2017-08-15T11:47:26.053Z,1005.93
2017-08-15T11:48:26.044Z,1005.93
2017-08-15T11:49:26.040Z,1005.99
2017-08-15T11:50:26.034Z,1006.1
2017-08-15T11:51:26.031Z,1006.12
2017-08-15T11:52:26.025Z,1006.2
2017-08-15T11:53:26.020Z,1006.18
2017-08-15T11:54:26.017Z,1006.15
2017-08-15T11:55:26.012Z,1006.17
2017-08-15T11:56:26.005Z,1006.11
2017-08-15T11:57:26.003Z,1006.1
2017-08-15T11:58:25.999Z,1006.11
2017-08-15T11:59:25.994Z,1006.21
2017-08-15T12:00:25.988Z,1006.25
2017-08-15T12:01:25.985Z,1006.2
2017-08-15T12:02:25.984Z,1006.18
2017-08-15T12:03:25.978Z,1006.24
2017-08-15T12:04:25.975Z,1006.25
2017-08-15T12:05:25.973Z,1006.28
2017-08-15T12:06:25.971Z,1006.28
2017-08-15T12:07:25.967Z,1006.26
2017-08-15T12:08:25.968Z,1006.27